createdAt,value
2019-02-16T00:01:19.035Z,114.77
2019-02-16T00:03:50.725Z,108.90
2019-02-16T00:06:19.272Z,109.20
2019-02-16T00:08:49.658Z,109.03
2019-02-16T00:11:20.315Z,122.10
2019-02-16T00:13:52.754Z,125.03
2019-02-16T00:16:21.393Z,117.67
2019-02-16T00:18:52.206Z,124.67
2019-02-16T00:21:23.123Z,124.83
2019-02-16T00:23:58.070Z,122.90
2019-02-16T00:26:23.871Z,126.73
2019-02-16T00:28:53.387Z,123.77
2019-02-16T00:31:23.543Z,139.50
2019-02-16T00:33:56.213Z,143.60
2019-02-16T00:36:24.760Z,127.30
2019-02-16T00:38:54.571Z,140.63
2019-02-16T00:41:23.395Z,135.90
2019-02-16T00:43:51.773Z,129.17
2019-02-16T00:46:20.461Z,116.23
2019-02-16T00:48:49.306Z,129.73
2019-02-16T00:51:19.909Z,117.30
2019-02-16T00:53:48.623Z,124.60
2019-02-16T00:56:17.558Z,115.60
2019-02-16T00:58:49.289Z,123.57
2019-02-16T01:01:17.848Z,131.10
2019-02-16T01:03:46.223Z,112.70
2019-02-16T01:06:15.900Z,115.90
2019-02-16T01:08:52.280Z,138.47
2019-02-16T01:11:22.315Z,121.47
2019-02-16T01:13:52.379Z,133.00
2019-02-16T01:16:24.380Z,126.57
2019-02-16T01:18:54.403Z,120.73
2019-02-16T01:21:23.241Z,116.60
2019-02-16T01:23:52.897Z,117.47
2019-02-16T01:26:21.456Z,132.80
2019-02-16T01:28:51.273Z,131.63
2019-02-16T01:31:22.621Z,134.47
2019-02-16T01:33:51.190Z,129.60
2019-02-16T01:36:19.761Z,150.00
2019-02-16T01:38:49.699Z,131.17
2019-02-16T01:41:21.700Z,123.20
2019-02-16T01:43:51.875Z,124.77
2019-02-16T01:46:21.445Z,127.50
2019-02-16T01:48:50.182Z,134.00
2019-02-16T01:51:19.589Z,115.90
2019-02-16T01:53:48.800Z,96.60
2019-02-16T01:56:20.977Z,113.90
2019-02-16T01:58:49.664Z,118.17
2019-02-16T02:01:18.275Z,99.67
2019-02-16T02:03:46.731Z,129.17
2019-02-16T02:06:15.724Z,120.00
2019-02-16T02:08:48.568Z,110.43
2019-02-16T02:11:17.632Z,103.13
2019-02-16T02:13:48.338Z,82.53
2019-02-16T02:16:17.874Z,80.23
2019-02-16T02:18:46.400Z,84.07
2019-02-16T02:21:14.810Z,83.70
2019-02-16T02:23:44.617Z,80.07
2019-02-16T02:26:18.019Z,83.77
2019-02-16T02:28:50.456Z,91.43
2019-02-16T02:31:20.284Z,72.53
2019-02-16T02:33:50.150Z,86.20
2019-02-16T02:36:19.323Z,70.30
2019-02-16T02:38:47.802Z,60.37
2019-02-16T02:41:18.495Z,67.67
2019-02-16T02:43:46.893Z,57.83
2019-02-16T02:46:15.341Z,79.20
2019-02-16T02:48:43.879Z,65.67
2019-02-16T02:51:12.316Z,80.20
2019-02-16T02:53:46.430Z,68.30
2019-02-16T02:56:16.406Z,71.67
2019-02-16T02:58:45.670Z,69.10
2019-02-16T03:01:14.168Z,72.57
2019-02-16T03:03:42.886Z,81.50
2019-02-16T03:06:11.402Z,68.87
2019-02-16T03:08:41.923Z,70.83
2019-02-16T03:11:10.450Z,65.37
2019-02-16T03:13:39.232Z,68.37
2019-02-16T03:16:07.773Z,57.17
2019-02-16T03:18:36.469Z,69.13
2019-02-16T03:21:05.062Z,76.77
2019-02-16T03:23:34.147Z,67.37
2019-02-16T03:26:07.220Z,67.83
2019-02-16T03:28:49.397Z,64.50
2019-02-16T03:31:47.843Z,49.80
2019-02-16T03:34:54.448Z,50.67
2019-02-16T03:37:26.309Z,54.63
2019-02-16T03:39:57.536Z,38.80
2019-02-16T03:42:32.379Z,55.73
2019-02-16T03:45:00.964Z,53.43
2019-02-16T03:47:31.024Z,53.93
2019-02-16T03:49:59.687Z,60.03
2019-02-16T03:52:28.250Z,71.93
2019-02-16T03:54:56.572Z,61.23
2019-02-16T03:57:26.158Z,55.67
2019-02-16T03:59:57.885Z,63.70
2019-02-16T04:02:27.644Z,55.83
2019-02-16T04:04:58.237Z,55.97
2019-02-16T04:07:28.087Z,46.90
2019-02-16T04:09:56.778Z,54.03
2019-02-16T04:12:25.798Z,51.47
2019-02-16T04:14:54.461Z,51.90
2019-02-16T04:17:23.008Z,51.13
2019-02-16T04:19:51.384Z,43.87
2019-02-16T04:22:24.519Z,41.87
2019-02-16T04:24:51.666Z,40.67
2019-02-16T04:27:21.969Z,44.87
2019-02-16T04:29:51.374Z,43.83
2019-02-16T04:32:19.994Z,51.23
2019-02-16T04:34:48.459Z,46.07
2019-02-16T04:37:19.361Z,45.00
2019-02-16T04:39:48.046Z,51.30
2019-02-16T04:42:18.955Z,41.43
2019-02-16T04:44:54.813Z,47.00
2019-02-16T04:47:25.612Z,49.10
2019-02-16T04:49:54.094Z,56.27
2019-02-16T04:52:22.632Z,50.57
2019-02-16T04:54:52.807Z,51.97
2019-02-16T04:57:28.278Z,54.97
2019-02-16T04:59:56.734Z,61.93
2019-02-16T05:02:28.745Z,58.37
2019-02-16T05:04:58.026Z,64.00
2019-02-16T05:07:27.969Z,52.40
2019-02-16T05:09:58.925Z,51.27
2019-02-16T05:12:28.172Z,60.23
2019-02-16T05:14:56.894Z,57.83
2019-02-16T05:17:28.244Z,46.13
2019-02-16T05:19:57.551Z,58.03
2019-02-16T05:22:28.887Z,61.23
2019-02-16T05:24:57.362Z,56.13
2019-02-16T05:27:25.774Z,55.03
2019-02-16T05:29:54.354Z,53.07
2019-02-16T05:32:23.845Z,54.17
2019-02-16T05:34:52.631Z,49.83
2019-02-16T05:37:21.188Z,58.33
2019-02-16T05:39:49.867Z,54.07
2019-02-16T05:42:19.656Z,57.90
2019-02-16T05:44:49.690Z,57.23
2019-02-16T05:47:19.821Z,57.87
2019-02-16T05:49:58.844Z,64.47
2019-02-16T05:52:31.631Z,61.40
2019-02-16T05:54:58.294Z,62.77
2019-02-16T05:57:28.414Z,60.80
2019-02-16T06:00:02.290Z,47.00
2019-02-16T06:02:33.895Z,56.13
2019-02-16T06:05:08.569Z,65.23
2019-02-16T06:07:37.068Z,71.83
2019-02-16T06:10:07.514Z,35.37
2019-02-16T06:12:37.713Z,41.60
2019-02-16T06:15:11.072Z,43.13
2019-02-16T06:17:40.119Z,49.23
2019-02-16T06:20:11.803Z,43.17
2019-02-16T06:22:40.456Z,58.17
2019-02-16T06:25:09.783Z,50.77
2019-02-16T06:27:39.920Z,54.53
2019-02-16T06:30:09.142Z,57.40
2019-02-16T06:32:39.339Z,49.17
2019-02-16T06:35:12.635Z,50.17
2019-02-16T06:37:43.810Z,47.53
2019-02-16T06:40:15.683Z,43.93
2019-02-16T06:42:44.318Z,70.77
2019-02-16T06:45:14.738Z,46.33
2019-02-16T06:47:45.475Z,56.37
2019-02-16T06:50:16.928Z,47.07
2019-02-16T06:52:49.700Z,49.13
2019-02-16T06:55:18.571Z,49.10
2019-02-16T06:57:49.198Z,44.83
2019-02-16T07:00:20.578Z,37.40
2019-02-16T07:02:52.284Z,42.57
2019-02-16T07:05:21.225Z,49.13
2019-02-16T07:07:57.272Z,46.47
2019-02-16T07:10:28.787Z,57.03
2019-02-16T07:12:57.516Z,61.87
2019-02-16T07:15:27.653Z,50.50
2019-02-16T07:18:02.310Z,50.20
2019-02-16T07:20:32.494Z,45.27
2019-02-16T07:23:05.766Z,42.60
2019-02-16T07:25:36.713Z,46.47
2019-02-16T07:28:10.082Z,37.60
2019-02-16T07:30:40.196Z,43.47
2019-02-16T07:33:10.143Z,54.20
2019-02-16T07:35:40.543Z,53.37
2019-02-16T07:38:10.085Z,38.80
2019-02-16T07:40:41.392Z,37.23
2019-02-16T07:43:14.506Z,42.20
2019-02-16T07:45:46.082Z,43.60
2019-02-16T07:48:18.028Z,46.23
2019-02-16T07:50:49.437Z,52.20
2019-02-16T07:53:31.377Z,40.10
2019-02-16T07:56:05.493Z,36.93
2019-02-16T07:58:40.340Z,36.87
2019-02-16T08:01:13.694Z,37.67
2019-02-16T08:03:48.793Z,38.37
2019-02-16T08:06:31.124Z,32.30
2019-02-16T08:09:01.317Z,36.70
2019-02-16T08:11:36.047Z,35.40
2019-02-16T08:14:08.903Z,126.90
2019-02-16T08:16:58.279Z,37.33
2019-02-16T08:19:30.689Z,37.30
2019-02-16T08:22:01.797Z,34.83
2019-02-16T08:24:36.061Z,55.17
2019-02-16T08:27:21.440Z,33.17
2019-02-16T08:29:51.998Z,34.77
2019-02-16T08:32:27.009Z,38.17
2019-02-16T08:35:01.918Z,37.00
2019-02-16T08:37:32.713Z,35.93
2019-02-16T08:40:19.118Z,35.10
2019-02-16T08:43:00.041Z,33.67
2019-02-16T08:45:39.280Z,32.00
2019-02-16T08:48:23.559Z,135.40
2019-02-16T08:50:55.813Z,71.23
2019-02-16T08:53:50.092Z,36.63
2019-02-16T08:56:38.442Z,43.87
2019-02-16T08:59:08.912Z,70.13
2019-02-16T09:01:49.735Z,69.83
2019-02-16T09:04:37.090Z,112.87
2019-02-16T09:07:09.207Z,45.53
2019-02-16T09:09:50.149Z,50.77
2019-02-16T09:12:27.547Z,40.97
2019-02-16T09:15:17.396Z,41.93
2019-02-16T09:18:06.560Z,56.67
2019-02-16T09:20:43.300Z,46.83
2019-02-16T09:23:17.020Z,44.60
2019-02-16T09:26:00.375Z,43.07
2019-02-16T09:28:50.288Z,44.67
2019-02-16T09:31:36.831Z,39.83
2019-02-16T09:34:26.954Z,35.20
2019-02-16T09:37:15.994Z,33.80
2019-02-16T09:40:06.836Z,41.27
2019-02-16T09:42:46.093Z,34.73
2019-02-16T09:45:22.286Z,34.37
2019-02-16T09:47:55.416Z,41.53
2019-02-16T09:50:28.743Z,44.53
2019-02-16T09:53:12.609Z,84.23
2019-02-16T09:55:48.461Z,50.50
2019-02-16T09:58:19.832Z,217.87
2019-02-16T10:00:56.058Z,29.70
2019-02-16T10:03:29.077Z,55.93
2019-02-16T10:06:16.624Z,146.70
2019-02-16T10:09:14.449Z,35.90
2019-02-16T10:11:45.016Z,69.73
2019-02-16T10:14:29.184Z,51.17
2019-02-16T10:17:18.872Z,122.03
2019-02-16T10:19:51.182Z,34.53
2019-02-16T10:22:21.931Z,42.63
2019-02-16T10:25:13.247Z,95.23
2019-02-16T10:27:47.435Z,59.03
2019-02-16T10:30:18.379Z,49.47
2019-02-16T10:33:00.846Z,47.37
2019-02-16T10:35:49.214Z,35.30
2019-02-16T10:38:24.758Z,49.97
2019-02-16T10:41:02.205Z,48.30
2019-02-16T10:43:49.689Z,40.50
2019-02-16T10:46:22.772Z,254.63
2019-02-16T10:48:54.792Z,103.97
2019-02-16T10:51:41.329Z,45.40
2019-02-16T10:54:28.043Z,75.53
2019-02-16T10:57:10.299Z,37.97
2019-02-16T10:59:45.826Z,46.37
2019-02-16T11:02:33.455Z,35.53
2019-02-16T11:05:06.433Z,37.70
2019-02-16T11:07:39.354Z,60.77
2019-02-16T11:10:28.076Z,87.17
2019-02-16T11:12:58.100Z,54.93
2019-02-16T11:15:35.391Z,173.70
2019-02-16T11:18:21.890Z,40.97
2019-02-16T11:21:01.222Z,44.03
2019-02-16T11:23:34.172Z,47.30
2019-02-16T11:26:23.568Z,36.63
2019-02-16T11:29:06.987Z,39.07
2019-02-16T11:31:40.796Z,34.57
2019-02-16T11:34:12.848Z,39.90
2019-02-16T11:36:54.819Z,33.07
2019-02-16T11:39:34.335Z,59.00
2019-02-16T11:42:06.104Z,47.23
2019-02-16T11:44:39.995Z,43.23
2019-02-16T11:47:12.861Z,35.43
2019-02-16T11:50:01.840Z,167.23
2019-02-16T11:52:35.708Z,41.40
2019-02-16T11:55:10.240Z,29.20
2019-02-16T11:57:58.261Z,45.30
2019-02-16T12:00:44.612Z,73.63
2019-02-16T12:03:15.358Z,104.20
2019-02-16T12:05:48.617Z,68.97
2019-02-16T12:08:38.197Z,49.87
2019-02-16T12:11:16.084Z,55.20
2019-02-16T12:14:02.736Z,122.10
2019-02-16T12:16:38.846Z,65.70
2019-02-16T12:19:14.739Z,38.23
2019-02-16T12:21:47.385Z,49.57
2019-02-16T12:24:31.054Z,60.23
2019-02-16T12:27:05.836Z,34.40
2019-02-16T12:29:36.265Z,30.80
2019-02-16T12:32:08.451Z,29.43
2019-02-16T12:34:51.401Z,112.13
2019-02-16T12:37:38.423Z,88.90
2019-02-16T12:40:16.924Z,178.97
2019-02-16T12:42:49.668Z,105.33
2019-02-16T12:45:28.004Z,100.23
2019-02-16T12:48:05.419Z,44.67
2019-02-16T12:50:40.418Z,59.73
2019-02-16T12:53:26.632Z,120.60
2019-02-16T12:56:02.394Z,39.10
2019-02-16T12:58:36.679Z,74.93
2019-02-16T13:01:19.341Z,72.70
2019-02-16T13:03:57.220Z,31.00
2019-02-16T13:06:27.422Z,34.63
2019-02-16T13:08:59.956Z,40.20
2019-02-16T13:11:30.367Z,30.40
2019-02-16T13:14:10.495Z,65.50
2019-02-16T13:16:41.774Z,48.27
2019-02-16T13:19:15.548Z,31.50
2019-02-16T13:21:45.805Z,36.27
2019-02-16T13:24:16.804Z,27.10
2019-02-16T13:26:56.615Z,32.37
2019-02-16T13:29:34.407Z,55.30
2019-02-16T13:32:13.224Z,40.63
2019-02-16T13:34:51.940Z,70.57
2019-02-16T13:37:22.059Z,165.33
2019-02-16T13:40:04.115Z,32.90
2019-02-16T13:42:38.100Z,34.03
2019-02-16T13:45:09.611Z,42.90
2019-02-16T13:47:42.574Z,85.90
2019-02-16T13:50:20.932Z,35.33
2019-02-16T13:52:56.689Z,56.67
2019-02-16T13:55:36.197Z,129.63
2019-02-16T13:58:09.972Z,42.03
2019-02-16T14:00:42.895Z,37.87
2019-02-16T14:03:23.896Z,40.63
2019-02-16T14:05:54.484Z,124.67
2019-02-16T14:08:28.675Z,182.23
2019-02-16T14:11:14.829Z,238.10
2019-02-16T14:13:48.255Z,57.50
2019-02-16T14:16:18.667Z,430.70
2019-02-16T14:18:48.352Z,181.67
2019-02-16T14:21:18.138Z,533.67
2019-02-16T14:23:49.977Z,43.23
2019-02-16T14:26:18.515Z,123.63
2019-02-16T14:28:49.356Z,277.57
2019-02-16T14:31:28.053Z,371.63
2019-02-16T14:33:51.598Z,335.47
2019-02-16T14:36:21.920Z,211.17
2019-02-16T14:38:52.242Z,146.60
2019-02-16T14:41:20.872Z,37.93
2019-02-16T14:43:50.046Z,59.33
2019-02-16T14:46:18.549Z,69.57
2019-02-16T14:48:46.963Z,175.37
2019-02-16T14:51:20.290Z,89.30
2019-02-16T14:53:49.963Z,59.07
2019-02-16T14:56:18.516Z,256.10
2019-02-16T14:58:47.034Z,360.43
2019-02-16T15:01:15.452Z,54.77
2019-02-16T15:03:43.822Z,255.97
2019-02-16T15:06:15.549Z,120.93
2019-02-16T15:08:44.319Z,316.60
2019-02-16T15:11:13.897Z,106.40
2019-02-16T15:13:45.073Z,230.50
2019-02-16T15:16:15.184Z,61.60
2019-02-16T15:18:45.148Z,73.67
2019-02-16T15:21:17.092Z,69.23
2019-02-16T15:23:47.223Z,54.63
2019-02-16T15:26:17.254Z,58.23
2019-02-16T15:28:46.239Z,58.67
2019-02-16T15:31:15.549Z,51.47
2019-02-16T15:33:46.333Z,56.63
2019-02-16T15:36:23.962Z,52.57
2019-02-16T15:38:49.041Z,52.80
2019-02-16T15:41:17.442Z,43.07
2019-02-16T15:43:46.085Z,46.67
2019-02-16T15:46:14.609Z,53.73
2019-02-16T15:48:44.277Z,48.30
2019-02-16T15:51:13.658Z,56.73
2019-02-16T15:53:42.324Z,60.43
2019-02-16T15:56:15.117Z,53.57
2019-02-16T15:58:45.145Z,61.63
2019-02-16T16:01:13.907Z,55.87
2019-02-16T16:03:42.475Z,58.57
2019-02-16T16:06:19.540Z,60.97
2019-02-16T16:08:53.495Z,56.93
2019-02-16T16:11:26.676Z,60.77
2019-02-16T16:14:19.094Z,61.33
2019-02-16T16:16:50.830Z,57.67
2019-02-16T16:19:25.770Z,67.43
2019-02-16T16:22:04.839Z,60.87
2019-02-16T16:24:35.168Z,58.53
2019-02-16T16:27:21.440Z,57.00
2019-02-16T16:29:54.506Z,66.37
2019-02-16T16:32:39.983Z,76.73
2019-02-16T16:35:30.994Z,68.63
2019-02-16T16:38:01.333Z,65.13
2019-02-16T16:40:31.584Z,71.07
2019-02-16T16:43:04.668Z,67.40
2019-02-16T16:45:47.320Z,75.70
2019-02-16T16:48:14.621Z,72.40
2019-02-16T16:50:47.409Z,70.90
2019-02-16T16:53:21.603Z,69.97
2019-02-16T16:55:51.723Z,74.23
2019-02-16T16:58:29.728Z,76.97
2019-02-16T17:01:09.675Z,75.03
2019-02-16T17:03:53.928Z,72.63
2019-02-16T17:06:41.023Z,83.93
2019-02-16T17:09:12.895Z,79.43
2019-02-16T17:11:59.205Z,77.53
2019-02-16T17:14:44.540Z,79.50
2019-02-16T17:17:21.982Z,82.63
2019-02-16T17:19:53.039Z,79.60
2019-02-16T17:22:40.206Z,76.93
2019-02-16T17:25:20.664Z,78.43
2019-02-16T17:27:57.346Z,75.70
2019-02-16T17:30:38.010Z,74.53
2019-02-16T17:33:16.914Z,77.40
2019-02-16T17:35:52.539Z,93.37
2019-02-16T17:38:29.914Z,96.23
2019-02-16T17:41:15.964Z,91.13
2019-02-16T17:43:51.002Z,87.33
2019-02-16T17:46:51.301Z,84.73
2019-02-16T17:49:25.955Z,94.50
2019-02-16T17:51:58.074Z,90.13
2019-02-16T17:54:39.970Z,96.03
2019-02-16T17:57:10.485Z,93.63
2019-02-16T17:59:48.650Z,93.27
2019-02-16T18:02:35.604Z,99.23
2019-02-16T18:05:11.187Z,94.97
2019-02-16T18:07:55.514Z,93.10
2019-02-16T18:10:32.059Z,95.37
2019-02-16T18:13:02.537Z,91.30
2019-02-16T18:15:36.735Z,92.40
2019-02-16T18:18:12.541Z,83.80
2019-02-16T18:20:51.748Z,96.57
2019-02-16T18:23:23.159Z,97.83
2019-02-16T18:25:57.395Z,92.47
2019-02-16T18:28:27.670Z,98.63
2019-02-16T18:31:18.924Z,102.63
2019-02-16T18:33:58.285Z,113.73
2019-02-16T18:36:49.170Z,110.20
2019-02-16T18:39:40.687Z,103.17
2019-02-16T18:42:29.706Z,125.17
2019-02-16T18:45:11.793Z,109.60
2019-02-16T18:47:49.870Z,109.30
2019-02-16T18:50:36.194Z,122.83
2019-02-16T18:53:17.820Z,124.10
2019-02-16T18:55:54.283Z,115.77
2019-02-16T18:58:39.728Z,113.57
2019-02-16T19:01:12.901Z,113.73
2019-02-16T19:04:07.670Z,120.27
2019-02-16T19:06:46.305Z,120.80
2019-02-16T19:09:27.196Z,136.10
2019-02-16T19:12:19.412Z,142.33
2019-02-16T19:15:01.477Z,129.47
2019-02-16T19:17:53.481Z,139.17
2019-02-16T19:20:38.164Z,153.40
2019-02-16T19:23:16.116Z,136.37
2019-02-16T19:25:50.459Z,138.90
2019-02-16T19:28:48.090Z,131.57
2019-02-16T19:31:18.607Z,132.03
2019-02-16T19:33:58.224Z,152.83
2019-02-16T19:36:42.048Z,147.10
2019-02-16T19:39:12.139Z,164.27
2019-02-16T19:41:53.695Z,167.93
2019-02-16T19:44:27.197Z,151.70
2019-02-16T19:47:01.869Z,151.13
2019-02-16T19:49:32.552Z,160.17
2019-02-16T19:52:11.043Z,147.70
2019-02-16T19:54:54.256Z,152.40
2019-02-16T19:57:29.499Z,149.90
2019-02-16T20:00:11.203Z,152.77
2019-02-16T20:02:46.715Z,139.20
2019-02-16T20:05:27.971Z,151.27
2019-02-16T20:08:06.537Z,151.37
2019-02-16T20:11:02.317Z,126.83
2019-02-16T20:13:38.139Z,128.43
2019-02-16T20:16:20.853Z,134.17
2019-02-16T20:18:53.735Z,125.23
2019-02-16T20:21:34.225Z,146.50
2019-02-16T20:24:16.710Z,132.20
2019-02-16T20:26:56.249Z,134.03
2019-02-16T20:29:28.719Z,132.00
2019-02-16T20:32:04.989Z,140.70
2019-02-16T20:34:43.831Z,124.77
2019-02-16T20:37:15.695Z,133.90
2019-02-16T20:39:56.326Z,131.93
2019-02-16T20:42:44.886Z,135.50
2019-02-16T20:45:18.387Z,125.13
2019-02-16T20:48:05.048Z,143.37
2019-02-16T20:50:53.885Z,140.07
2019-02-16T20:53:25.141Z,135.13
2019-02-16T20:55:58.067Z,133.93
2019-02-16T20:58:29.018Z,161.27
2019-02-16T21:01:01.534Z,145.10
2019-02-16T21:03:41.781Z,160.30
2019-02-16T21:06:28.666Z,133.20
2019-02-16T21:09:09.232Z,141.30
2019-02-16T21:11:57.185Z,136.27
2019-02-16T21:14:39.765Z,130.77
2019-02-16T21:17:16.327Z,139.67
2019-02-16T21:19:57.782Z,141.77
2019-02-16T21:22:36.760Z,147.57
2019-02-16T21:25:14.693Z,126.40
2019-02-16T21:27:58.124Z,150.93
2019-02-16T21:33:40.326Z,164.00
2019-02-16T21:36:14.644Z,148.57
2019-02-16T21:38:48.481Z,141.30
2019-02-16T21:41:25.884Z,137.33
2019-02-16T21:44:09.208Z,137.90
2019-02-16T21:46:59.480Z,150.13
2019-02-16T21:49:39.543Z,155.13
2019-02-16T21:52:25.666Z,171.23
2019-02-16T21:55:03.233Z,160.87
2019-02-16T21:57:39.459Z,158.63
2019-02-16T22:00:30.492Z,159.73
2019-02-16T22:03:17.688Z,135.90
2019-02-16T22:05:54.553Z,143.57
2019-02-16T22:08:24.836Z,140.27
2019-02-16T22:11:13.487Z,150.93
2019-02-16T22:13:46.678Z,153.77
2019-02-16T22:16:16.868Z,134.43
2019-02-16T22:18:46.835Z,150.57
2019-02-16T22:21:20.264Z,163.47
2019-02-16T22:23:55.234Z,153.43
2019-02-16T22:26:27.631Z,169.67
2019-02-16T22:29:01.377Z,164.30
2019-02-16T22:31:31.232Z,160.47
2019-02-16T22:34:03.137Z,164.33
2019-02-16T22:36:34.723Z,139.77
2019-02-16T22:39:04.253Z,160.97
2019-02-16T22:41:35.586Z,165.33
2019-02-16T22:44:05.553Z,146.53
2019-02-16T22:46:39.607Z,125.20
2019-02-16T22:49:16.418Z,146.80
2019-02-16T22:51:49.433Z,155.47
2019-02-16T22:54:15.629Z,171.30
2019-02-16T22:56:45.254Z,170.43
2019-02-16T22:59:16.938Z,151.53
2019-02-16T23:01:46.184Z,140.20
2019-02-16T23:04:15.191Z,140.63
2019-02-16T23:06:45.283Z,165.00
2019-02-16T23:09:16.668Z,155.40
2019-02-16T23:11:45.325Z,171.97
2019-02-16T23:14:14.241Z,178.50
2019-02-16T23:16:47.111Z,184.73
2019-02-16T23:19:17.143Z,190.97
2019-02-16T23:21:45.727Z,183.00
2019-02-16T23:24:18.216Z,184.33
2019-02-16T23:26:51.397Z,174.90
2019-02-16T23:29:21.465Z,168.10
2019-02-16T23:31:51.060Z,174.83
2019-02-16T23:34:20.347Z,165.97
2019-02-16T23:36:53.479Z,180.70
2019-02-16T23:39:23.393Z,182.70
2019-02-16T23:41:54.327Z,175.43
2019-02-16T23:44:23.404Z,168.63
2019-02-16T23:46:54.561Z,171.53
2019-02-16T23:49:24.046Z,175.93
2019-02-16T23:51:54.186Z,164.77
2019-02-16T23:54:23.237Z,165.97
2019-02-16T23:56:53.227Z,162.53
2019-02-16T23:59:25.155Z,166.93
